sensor_id;sensor_type;location;lat;lon;timestamp;P1;durP1;ratioP1;P2;durP2;ratioP2
19191;SDS011;9728;48.194;16.346;2022-10-22T00:02:57;4.95;;;2.88;;
19191;SDS011;9728;48.194;16.346;2022-10-22T00:08:02;5.65;;;3.33;;
19191;SDS011;9728;48.194;16.346;2022-10-22T00:13:06;5.45;;;3.40;;
19191;SDS011;9728;48.194;16.346;2022-10-22T00:18:09;5.45;;;2.83;;
19191;SDS011;9728;48.194;16.346;2022-10-22T00:23:14;3.83;;;2.88;;
19191;SDS011;9728;48.194;16.346;2022-10-22T00:28:17;6.85;;;3.65;;
19191;SDS011;9728;48.194;16.346;2022-10-22T00:33:20;4.68;;;3.40;;
19191;SDS011;9728;48.194;16.346;2022-10-22T00:38:25;5.00;;;3.00;;
19191;SDS011;9728;48.194;16.346;2022-10-22T00:43:29;6.00;;;3.42;;
19191;SDS011;9728;48.194;16.346;2022-10-22T00:48:32;4.85;;;3.33;;
19191;SDS011;9728;48.194;16.346;2022-10-22T00:53:37;5.30;;;3.20;;
19191;SDS011;9728;48.194;16.346;2022-10-22T00:58:44;3.42;;;2.63;;
19191;SDS011;9728;48.194;16.346;2022-10-22T01:03:50;4.82;;;3.13;;
19191;SDS011;9728;48.194;16.346;2022-10-22T01:08:57;4.10;;;2.97;;
19191;SDS011;9728;48.194;16.346;2022-10-22T01:14:09;4.20;;;2.83;;
19191;SDS011;9728;48.194;16.346;2022-10-22T01:19:24;5.78;;;3.08;;
19191;SDS011;9728;48.194;16.346;2022-10-22T01:24:43;5.05;;;2.92;;
19191;SDS011;9728;48.194;16.346;2022-10-22T01:29:57;5.45;;;2.97;;
19191;SDS011;9728;48.194;16.346;2022-10-22T01:35:04;4.50;;;2.65;;
19191;SDS011;9728;48.194;16.346;2022-10-22T01:40:10;4.90;;;2.88;;
19191;SDS011;9728;48.194;16.346;2022-10-22T01:45:17;3.80;;;2.60;;
19191;SDS011;9728;48.194;16.346;2022-10-22T01:56:00;5.72;;;3.40;;
19191;SDS011;9728;48.194;16.346;2022-10-22T02:01:22;4.50;;;2.97;;
19191;SDS011;9728;48.194;16.346;2022-10-22T02:06:32;4.45;;;3.33;;
19191;SDS011;9728;48.194;16.346;2022-10-22T02:11:36;5.05;;;2.85;;
19191;SDS011;9728;48.194;16.346;2022-10-22T02:16:42;5.85;;;2.95;;
19191;SDS011;9728;48.194;16.346;2022-10-22T02:21:46;5.18;;;2.65;;
19191;SDS011;9728;48.194;16.346;2022-10-22T02:26:51;3.33;;;2.55;;
19191;SDS011;9728;48.194;16.346;2022-10-22T02:32:02;5.32;;;3.13;;
19191;SDS011;9728;48.194;16.346;2022-10-22T02:37:08;4.43;;;2.80;;
19191;SDS011;9728;48.194;16.346;2022-10-22T02:42:12;4.43;;;2.60;;
19191;SDS011;9728;48.194;16.346;2022-10-22T02:47:18;7.18;;;3.45;;
19191;SDS011;9728;48.194;16.346;2022-10-22T02:52:21;3.97;;;2.92;;
19191;SDS011;9728;48.194;16.346;2022-10-22T02:57:24;5.88;;;2.97;;
19191;SDS011;9728;48.194;16.346;2022-10-22T03:02:29;6.10;;;3.10;;
19191;SDS011;9728;48.194;16.346;2022-10-22T03:07:33;3.92;;;2.70;;
19191;SDS011;9728;48.194;16.346;2022-10-22T03:12:36;4.75;;;2.80;;
19191;SDS011;9728;48.194;16.346;2022-10-22T03:17:41;5.78;;;3.08;;
19191;SDS011;9728;48.194;16.346;2022-10-22T03:22:44;4.70;;;2.70;;
19191;SDS011;9728;48.194;16.346;2022-10-22T03:27:48;3.63;;;2.53;;
19191;SDS011;9728;48.194;16.346;2022-10-22T03:32:55;5.90;;;3.45;;
19191;SDS011;9728;48.194;16.346;2022-10-22T03:37:59;4.13;;;2.70;;
19191;SDS011;9728;48.194;16.346;2022-10-22T03:43:03;5.97;;;2.95;;
19191;SDS011;9728;48.194;16.346;2022-10-22T03:48:07;4.70;;;3.03;;
19191;SDS011;9728;48.194;16.346;2022-10-22T03:53:11;4.20;;;2.83;;
19191;SDS011;9728;48.194;16.346;2022-10-22T03:58:14;4.60;;;2.95;;
19191;SDS011;9728;48.194;16.346;2022-10-22T04:03:19;3.42;;;2.75;;
19191;SDS011;9728;48.194;16.346;2022-10-22T04:08:22;4.35;;;2.90;;
19191;SDS011;9728;48.194;16.346;2022-10-22T04:13:25;4.88;;;3.15;;
19191;SDS011;9728;48.194;16.346;2022-10-22T04:18:30;4.43;;;2.72;;
19191;SDS011;9728;48.194;16.346;2022-10-22T04:23:33;4.55;;;2.67;;
19191;SDS011;9728;48.194;16.346;2022-10-22T04:28:38;4.05;;;2.83;;
19191;SDS011;9728;48.194;16.346;2022-10-22T04:33:43;4.57;;;2.78;;
19191;SDS011;9728;48.194;16.346;2022-10-22T04:38:46;3.40;;;2.58;;
19191;SDS011;9728;48.194;16.346;2022-10-22T04:43:54;5.22;;;3.45;;
19191;SDS011;9728;48.194;16.346;2022-10-22T04:48:59;3.80;;;2.67;;
19191;SDS011;9728;48.194;16.346;2022-10-22T04:54:04;4.97;;;3.10;;
19191;SDS011;9728;48.194;16.346;2022-10-22T04:59:07;3.65;;;2.45;;
19191;SDS011;9728;48.194;16.346;2022-10-22T05:04:15;4.63;;;2.60;;
19191;SDS011;9728;48.194;16.346;2022-10-22T05:09:20;3.88;;;2.63;;
19191;SDS011;9728;48.194;16.346;2022-10-22T05:14:23;4.22;;;3.00;;
19191;SDS011;9728;48.194;16.346;2022-10-22T05:19:29;7.13;;;2.83;;
19191;SDS011;9728;48.194;16.346;2022-10-22T05:24:33;3.78;;;2.85;;
19191;SDS011;9728;48.194;16.346;2022-10-22T05:29:38;4.15;;;3.10;;
19191;SDS011;9728;48.194;16.346;2022-10-22T05:34:43;4.78;;;2.85;;
19191;SDS011;9728;48.194;16.346;2022-10-22T05:39:46;3.67;;;2.67;;
19191;SDS011;9728;48.194;16.346;2022-10-22T05:45:07;4.07;;;2.85;;
19191;SDS011;9728;48.194;16.346;2022-10-22T05:50:12;3.70;;;2.53;;
19191;SDS011;9728;48.194;16.346;2022-10-22T05:55:15;4.45;;;3.20;;
19191;SDS011;9728;48.194;16.346;2022-10-22T06:00:19;2.90;;;2.00;;
19191;SDS011;9728;48.194;16.346;2022-10-22T06:05:24;4.57;;;2.92;;
19191;SDS011;9728;48.194;16.346;2022-10-22T06:10:27;4.68;;;3.30;;
19191;SDS011;9728;48.194;16.346;2022-10-22T06:15:31;8.57;;;3.33;;
19191;SDS011;9728;48.194;16.346;2022-10-22T06:20:36;5.57;;;3.47;;
19191;SDS011;9728;48.194;16.346;2022-10-22T06:25:39;5.05;;;3.05;;
19191;SDS011;9728;48.194;16.346;2022-10-22T06:30:43;5.32;;;2.83;;
19191;SDS011;9728;48.194;16.346;2022-10-22T06:35:48;5.50;;;3.30;;
19191;SDS011;9728;48.194;16.346;2022-10-22T06:40:51;3.95;;;2.70;;
19191;SDS011;9728;48.194;16.346;2022-10-22T06:45:57;3.58;;;2.25;;
19191;SDS011;9728;48.194;16.346;2022-10-22T06:51:03;4.22;;;3.08;;
19191;SDS011;9728;48.194;16.346;2022-10-22T06:56:10;5.50;;;3.03;;
19191;SDS011;9728;48.194;16.346;2022-10-22T07:01:15;4.78;;;3.22;;
19191;SDS011;9728;48.194;16.346;2022-10-22T07:06:23;5.47;;;3.63;;
19191;SDS011;9728;48.194;16.346;2022-10-22T07:11:28;5.30;;;3.47;;
19191;SDS011;9728;48.194;16.346;2022-10-22T07:16:35;5.82;;;3.67;;
19191;SDS011;9728;48.194;16.346;2022-10-22T07:21:40;4.60;;;3.33;;
19191;SDS011;9728;48.194;16.346;2022-10-22T07:26:43;5.05;;;3.60;;
19191;SDS011;9728;48.194;16.346;2022-10-22T07:31:47;4.47;;;2.83;;
19191;SDS011;9728;48.194;16.346;2022-10-22T07:36:52;4.20;;;3.17;;
19191;SDS011;9728;48.194;16.346;2022-10-22T07:41:55;7.55;;;3.90;;
19191;SDS011;9728;48.194;16.346;2022-10-22T07:46:58;4.75;;;3.53;;
19191;SDS011;9728;48.194;16.346;2022-10-22T07:52:03;5.43;;;3.85;;
19191;SDS011;9728;48.194;16.346;2022-10-22T07:57:08;3.95;;;3.15;;
19191;SDS011;9728;48.194;16.346;2022-10-22T08:02:11;4.88;;;3.65;;
19191;SDS011;9728;48.194;16.346;2022-10-22T08:07:16;5.60;;;4.07;;
19191;SDS011;9728;48.194;16.346;2022-10-22T08:12:20;6.15;;;3.33;;
19191;SDS011;9728;48.194;16.346;2022-10-22T08:17:23;5.35;;;3.70;;
19191;SDS011;9728;48.194;16.346;2022-10-22T08:22:28;5.80;;;3.55;;
19191;SDS011;9728;48.194;16.346;2022-10-22T08:27:31;6.15;;;3.72;;
19191;SDS011;9728;48.194;16.346;2022-10-22T08:32:34;6.68;;;3.90;;
19191;SDS011;9728;48.194;16.346;2022-10-22T08:37:39;4.85;;;3.65;;
19191;SDS011;9728;48.194;16.346;2022-10-22T08:42:49;7.43;;;4.20;;
19191;SDS011;9728;48.194;16.346;2022-10-22T08:48:21;6.00;;;4.03;;
19191;SDS011;9728;48.194;16.346;2022-10-22T08:53:33;6.57;;;4.45;;
19191;SDS011;9728;48.194;16.346;2022-10-22T08:58:49;5.85;;;4.15;;
19191;SDS011;9728;48.194;16.346;2022-10-22T09:03:58;5.63;;;3.70;;
19191;SDS011;9728;48.194;16.346;2022-10-22T09:09:10;6.40;;;4.15;;
19191;SDS011;9728;48.194;16.346;2022-10-22T09:14:17;6.03;;;4.38;;
19191;SDS011;9728;48.194;16.346;2022-10-22T09:19:23;3.08;;;2.30;;
19191;SDS011;9728;48.194;16.346;2022-10-22T09:24:34;5.53;;;2.78;;
19191;SDS011;9728;48.194;16.346;2022-10-22T09:29:40;5.80;;;4.40;;
19191;SDS011;9728;48.194;16.346;2022-10-22T09:34:44;6.15;;;5.03;;
19191;SDS011;9728;48.194;16.346;2022-10-22T09:39:51;5.70;;;3.80;;
19191;SDS011;9728;48.194;16.346;2022-10-22T09:44:56;6.60;;;4.00;;
19191;SDS011;9728;48.194;16.346;2022-10-22T09:50:06;5.50;;;3.97;;
19191;SDS011;9728;48.194;16.346;2022-10-22T09:55:21;5.10;;;3.85;;
19191;SDS011;9728;48.194;16.346;2022-10-22T10:00:28;5.55;;;3.92;;
19191;SDS011;9728;48.194;16.346;2022-10-22T10:05:33;6.47;;;3.83;;
19191;SDS011;9728;48.194;16.346;2022-10-22T10:10:40;4.20;;;3.47;;
19191;SDS011;9728;48.194;16.346;2022-10-22T10:15:50;6.18;;;4.28;;
19191;SDS011;9728;48.194;16.346;2022-10-22T10:20:59;5.15;;;3.70;;
19191;SDS011;9728;48.194;16.346;2022-10-22T10:26:14;5.45;;;3.80;;
19191;SDS011;9728;48.194;16.346;2022-10-22T10:31:28;5.53;;;3.53;;
19191;SDS011;9728;48.194;16.346;2022-10-22T10:36:42;3.67;;;3.15;;
19191;SDS011;9728;48.194;16.346;2022-10-22T10:41:57;4.13;;;3.53;;
19191;SDS011;9728;48.194;16.346;2022-10-22T10:47:12;5.85;;;4.10;;
19191;SDS011;9728;48.194;16.346;2022-10-22T10:52:27;4.32;;;3.28;;
19191;SDS011;9728;48.194;16.346;2022-10-22T10:57:42;5.50;;;3.53;;
19191;SDS011;9728;48.194;16.346;2022-10-22T11:08:19;4.82;;;3.78;;
19191;SDS011;9728;48.194;16.346;2022-10-22T11:13:29;5.57;;;3.88;;
19191;SDS011;9728;48.194;16.346;2022-10-22T11:18:36;5.38;;;3.92;;
19191;SDS011;9728;48.194;16.346;2022-10-22T11:23:43;4.72;;;3.70;;
19191;SDS011;9728;48.194;16.346;2022-10-22T11:28:51;4.15;;;3.20;;
19191;SDS011;9728;48.194;16.346;2022-10-22T11:33:57;2.83;;;2.40;;
19191;SDS011;9728;48.194;16.346;2022-10-22T11:39:29;2.78;;;1.92;;
19191;SDS011;9728;48.194;16.346;2022-10-22T11:44:58;4.35;;;2.00;;
19191;SDS011;9728;48.194;16.346;2022-10-22T11:50:16;3.92;;;2.40;;
19191;SDS011;9728;48.194;16.346;2022-10-22T11:55:32;3.38;;;1.75;;
19191;SDS011;9728;48.194;16.346;2022-10-22T12:00:50;1.85;;;1.40;;
19191;SDS011;9728;48.194;16.346;2022-10-22T12:06:04;2.83;;;1.60;;
19191;SDS011;9728;48.194;16.346;2022-10-22T12:11:21;1.23;;;1.13;;
19191;SDS011;9728;48.194;16.346;2022-10-22T12:16:28;2.63;;;1.45;;
19191;SDS011;9728;48.194;16.346;2022-10-22T12:21:57;1.23;;;1.10;;
19191;SDS011;9728;48.194;16.346;2022-10-22T12:27:14;1.25;;;1.15;;
19191;SDS011;9728;48.194;16.346;2022-10-22T12:32:32;2.03;;;1.42;;
19191;SDS011;9728;48.194;16.346;2022-10-22T12:37:38;1.42;;;1.23;;
19191;SDS011;9728;48.194;16.346;2022-10-22T12:42:45;2.00;;;1.30;;
19191;SDS011;9728;48.194;16.346;2022-10-22T12:47:55;1.13;;;1.02;;
19191;SDS011;9728;48.194;16.346;2022-10-22T12:53:00;1.50;;;1.17;;
19191;SDS011;9728;48.194;16.346;2022-10-22T12:58:04;2.50;;;1.10;;
19191;SDS011;9728;48.194;16.346;2022-10-22T13:03:10;1.95;;;1.30;;
19191;SDS011;9728;48.194;16.346;2022-10-22T13:08:27;1.52;;;1.20;;
19191;SDS011;9728;48.194;16.346;2022-10-22T13:13:31;1.70;;;1.30;;
19191;SDS011;9728;48.194;16.346;2022-10-22T13:18:43;1.40;;;1.30;;
19191;SDS011;9728;48.194;16.346;2022-10-22T13:23:51;2.10;;;1.65;;
19191;SDS011;9728;48.194;16.346;2022-10-22T13:28:55;1.17;;;1.05;;
19191;SDS011;9728;48.194;16.346;2022-10-22T13:34:03;1.88;;;1.48;;
19191;SDS011;9728;48.194;16.346;2022-10-22T13:39:15;1.63;;;1.38;;
19191;SDS011;9728;48.194;16.346;2022-10-22T13:44:20;1.45;;;1.35;;
19191;SDS011;9728;48.194;16.346;2022-10-22T13:49:24;1.67;;;1.33;;
19191;SDS011;9728;48.194;16.346;2022-10-22T13:54:28;2.13;;;1.38;;
19191;SDS011;9728;48.194;16.346;2022-10-22T13:59:32;2.45;;;1.20;;
19191;SDS011;9728;48.194;16.346;2022-10-22T14:04:37;1.73;;;1.48;;
19191;SDS011;9728;48.194;16.346;2022-10-22T14:09:42;1.38;;;1.20;;
19191;SDS011;9728;48.194;16.346;2022-10-22T14:14:46;1.40;;;1.25;;
19191;SDS011;9728;48.194;16.346;2022-10-22T14:19:51;1.45;;;1.35;;
19191;SDS011;9728;48.194;16.346;2022-10-22T14:24:54;2.65;;;1.40;;
19191;SDS011;9728;48.194;16.346;2022-10-22T14:29:58;1.67;;;1.30;;
19191;SDS011;9728;48.194;16.346;2022-10-22T14:35:03;2.25;;;1.27;;
19191;SDS011;9728;48.194;16.346;2022-10-22T14:40:07;2.17;;;1.50;;
19191;SDS011;9728;48.194;16.346;2022-10-22T14:45:15;1.63;;;1.10;;
19191;SDS011;9728;48.194;16.346;2022-10-22T14:50:22;2.08;;;1.08;;
19191;SDS011;9728;48.194;16.346;2022-10-22T14:55:26;1.35;;;1.08;;
19191;SDS011;9728;48.194;16.346;2022-10-22T15:00:29;1.38;;;1.27;;
19191;SDS011;9728;48.194;16.346;2022-10-22T15:05:36;2.55;;;1.38;;
19191;SDS011;9728;48.194;16.346;2022-10-22T15:10:45;2.13;;;1.10;;
19191;SDS011;9728;48.194;16.346;2022-10-22T15:15:49;1.58;;;1.45;;
19191;SDS011;9728;48.194;16.346;2022-10-22T15:20:55;1.85;;;1.30;;
19191;SDS011;9728;48.194;16.346;2022-10-22T15:26:00;1.80;;;1.42;;
19191;SDS011;9728;48.194;16.346;2022-10-22T15:31:04;1.67;;;1.50;;
19191;SDS011;9728;48.194;16.346;2022-10-22T15:36:13;1.83;;;1.10;;
19191;SDS011;9728;48.194;16.346;2022-10-22T15:41:19;9.70;;;1.50;;
19191;SDS011;9728;48.194;16.346;2022-10-22T15:46:22;2.05;;;1.30;;
19191;SDS011;9728;48.194;16.346;2022-10-22T15:51:34;1.60;;;1.02;;
19191;SDS011;9728;48.194;16.346;2022-10-22T15:56:38;1.55;;;0.85;;
19191;SDS011;9728;48.194;16.346;2022-10-22T16:01:43;1.05;;;0.95;;
19191;SDS011;9728;48.194;16.346;2022-10-22T16:06:50;0.90;;;0.70;;
19191;SDS011;9728;48.194;16.346;2022-10-22T16:11:54;1.90;;;0.90;;
19191;SDS011;9728;48.194;16.346;2022-10-22T16:16:58;1.25;;;0.70;;
19191;SDS011;9728;48.194;16.346;2022-10-22T16:22:04;2.35;;;0.95;;
19191;SDS011;9728;48.194;16.346;2022-10-22T16:27:10;0.90;;;0.70;;
19191;SDS011;9728;48.194;16.346;2022-10-22T16:32:14;4.72;;;1.38;;
19191;SDS011;9728;48.194;16.346;2022-10-22T16:37:20;1.55;;;1.05;;
19191;SDS011;9728;48.194;16.346;2022-10-22T16:42:23;1.50;;;1.30;;
19191;SDS011;9728;48.194;16.346;2022-10-22T16:47:27;2.58;;;1.08;;
19191;SDS011;9728;48.194;16.346;2022-10-22T16:52:33;2.85;;;1.33;;
19191;SDS011;9728;48.194;16.346;2022-10-22T16:57:37;1.90;;;0.75;;
19191;SDS011;9728;48.194;16.346;2022-10-22T17:02:41;1.35;;;0.85;;
19191;SDS011;9728;48.194;16.346;2022-10-22T17:07:48;1.23;;;1.00;;
19191;SDS011;9728;48.194;16.346;2022-10-22T17:12:54;1.77;;;0.88;;
19191;SDS011;9728;48.194;16.346;2022-10-22T17:17:59;2.08;;;1.20;;
19191;SDS011;9728;48.194;16.346;2022-10-22T17:23:06;1.08;;;1.00;;
19191;SDS011;9728;48.194;16.346;2022-10-22T17:28:11;1.02;;;0.93;;
19191;SDS011;9728;48.194;16.346;2022-10-22T17:33:15;1.00;;;0.90;;
19191;SDS011;9728;48.194;16.346;2022-10-22T17:38:22;2.17;;;1.00;;
19191;SDS011;9728;48.194;16.346;2022-10-22T17:43:27;1.80;;;0.90;;
19191;SDS011;9728;48.194;16.346;2022-10-22T17:48:32;1.17;;;1.02;;
19191;SDS011;9728;48.194;16.346;2022-10-22T17:53:40;2.30;;;1.10;;
19191;SDS011;9728;48.194;16.346;2022-10-22T17:58:47;1.38;;;1.27;;
19191;SDS011;9728;48.194;16.346;2022-10-22T18:03:51;1.75;;;1.10;;
19191;SDS011;9728;48.194;16.346;2022-10-22T18:08:58;1.17;;;1.00;;
19191;SDS011;9728;48.194;16.346;2022-10-22T18:14:05;1.60;;;1.23;;
19191;SDS011;9728;48.194;16.346;2022-10-22T18:19:11;1.40;;;1.25;;
19191;SDS011;9728;48.194;16.346;2022-10-22T18:24:20;1.35;;;1.25;;
19191;SDS011;9728;48.194;16.346;2022-10-22T18:29:24;1.40;;;1.30;;
19191;SDS011;9728;48.194;16.346;2022-10-22T18:34:34;3.92;;;2.05;;
19191;SDS011;9728;48.194;16.346;2022-10-22T18:39:42;3.35;;;1.98;;
19191;SDS011;9728;48.194;16.346;2022-10-22T18:44:48;2.65;;;1.70;;
19191;SDS011;9728;48.194;16.346;2022-10-22T18:49:54;1.45;;;1.30;;
19191;SDS011;9728;48.194;16.346;2022-10-22T18:55:02;1.30;;;1.20;;
19191;SDS011;9728;48.194;16.346;2022-10-22T19:00:09;1.50;;;1.15;;
19191;SDS011;9728;48.194;16.346;2022-10-22T19:05:15;2.05;;;1.30;;
19191;SDS011;9728;48.194;16.346;2022-10-22T19:10:20;1.83;;;1.40;;
19191;SDS011;9728;48.194;16.346;2022-10-22T19:15:25;1.48;;;1.10;;
19191;SDS011;9728;48.194;16.346;2022-10-22T19:20:34;1.75;;;1.52;;
19191;SDS011;9728;48.194;16.346;2022-10-22T19:25:40;2.17;;;1.42;;
19191;SDS011;9728;48.194;16.346;2022-10-22T19:30:44;2.60;;;1.40;;
19191;SDS011;9728;48.194;16.346;2022-10-22T19:35:49;2.15;;;1.17;;
19191;SDS011;9728;48.194;16.346;2022-10-22T19:40:56;2.78;;;1.40;;
19191;SDS011;9728;48.194;16.346;2022-10-22T19:46:02;1.65;;;1.20;;
19191;SDS011;9728;48.194;16.346;2022-10-22T19:51:08;2.35;;;1.10;;
19191;SDS011;9728;48.194;16.346;2022-10-22T19:56:15;1.13;;;1.02;;
19191;SDS011;9728;48.194;16.346;2022-10-22T20:01:21;1.80;;;1.40;;
19191;SDS011;9728;48.194;16.346;2022-10-22T20:06:26;2.17;;;1.45;;
19191;SDS011;9728;48.194;16.346;2022-10-22T20:11:31;1.52;;;1.10;;
19191;SDS011;9728;48.194;16.346;2022-10-22T20:16:36;1.35;;;1.10;;
19191;SDS011;9728;48.194;16.346;2022-10-22T20:21:41;1.63;;;1.42;;
19191;SDS011;9728;48.194;16.346;2022-10-22T20:26:47;0.98;;;0.85;;
19191;SDS011;9728;48.194;16.346;2022-10-22T20:31:51;1.25;;;0.88;;
19191;SDS011;9728;48.194;16.346;2022-10-22T20:36:56;1.50;;;1.20;;
19191;SDS011;9728;48.194;16.346;2022-10-22T20:42:02;1.35;;;1.15;;
19191;SDS011;9728;48.194;16.346;2022-10-22T20:47:07;1.40;;;0.90;;
19191;SDS011;9728;48.194;16.346;2022-10-22T20:52:14;1.10;;;0.98;;
19191;SDS011;9728;48.194;16.346;2022-10-22T20:57:20;1.00;;;0.90;;
19191;SDS011;9728;48.194;16.346;2022-10-22T21:02:24;0.73;;;0.73;;
19191;SDS011;9728;48.194;16.346;2022-10-22T21:07:28;1.98;;;1.20;;
19191;SDS011;9728;48.194;16.346;2022-10-22T21:12:33;1.83;;;1.00;;
19191;SDS011;9728;48.194;16.346;2022-10-22T21:17:42;2.35;;;1.40;;
19191;SDS011;9728;48.194;16.346;2022-10-22T21:22:46;1.10;;;0.90;;
19191;SDS011;9728;48.194;16.346;2022-10-22T21:27:51;1.10;;;0.88;;
19191;SDS011;9728;48.194;16.346;2022-10-22T21:32:54;1.00;;;0.90;;
19191;SDS011;9728;48.194;16.346;2022-10-22T21:37:58;0.93;;;0.68;;
19191;SDS011;9728;48.194;16.346;2022-10-22T21:43:03;0.85;;;0.70;;
19191;SDS011;9728;48.194;16.346;2022-10-22T21:48:07;1.05;;;0.73;;
19191;SDS011;9728;48.194;16.346;2022-10-22T21:53:10;0.70;;;0.70;;
19191;SDS011;9728;48.194;16.346;2022-10-22T21:58:16;0.88;;;0.82;;
19191;SDS011;9728;48.194;16.346;2022-10-22T22:03:20;0.88;;;0.73;;
19191;SDS011;9728;48.194;16.346;2022-10-22T22:08:24;1.05;;;0.77;;
19191;SDS011;9728;48.194;16.346;2022-10-22T22:13:30;0.90;;;0.80;;
19191;SDS011;9728;48.194;16.346;2022-10-22T22:18:34;1.65;;;0.63;;
19191;SDS011;9728;48.194;16.346;2022-10-22T22:23:38;1.10;;;0.80;;
19191;SDS011;9728;48.194;16.346;2022-10-22T22:28:45;1.02;;;0.80;;
19191;SDS011;9728;48.194;16.346;2022-10-22T22:33:49;1.42;;;0.55;;
19191;SDS011;9728;48.194;16.346;2022-10-22T22:38:53;0.85;;;0.70;;
19191;SDS011;9728;48.194;16.346;2022-10-22T22:43:58;1.38;;;0.80;;
19191;SDS011;9728;48.194;16.346;2022-10-22T22:49:02;1.33;;;1.00;;
19191;SDS011;9728;48.194;16.346;2022-10-22T22:54:06;1.70;;;0.90;;
19191;SDS011;9728;48.194;16.346;2022-10-22T22:59:11;0.90;;;0.70;;
19191;SDS011;9728;48.194;16.346;2022-10-22T23:04:15;1.00;;;0.90;;
19191;SDS011;9728;48.194;16.346;2022-10-22T23:09:23;1.23;;;0.80;;
19191;SDS011;9728;48.194;16.346;2022-10-22T23:14:28;1.17;;;0.73;;
19191;SDS011;9728;48.194;16.346;2022-10-22T23:19:31;1.33;;;1.00;;
19191;SDS011;9728;48.194;16.346;2022-10-22T23:24:35;1.00;;;0.90;;
19191;SDS011;9728;48.194;16.346;2022-10-22T23:29:40;0.90;;;0.80;;
19191;SDS011;9728;48.194;16.346;2022-10-22T23:34:43;1.13;;;0.73;;
19191;SDS011;9728;48.194;16.346;2022-10-22T23:39:47;1.10;;;0.90;;
19191;SDS011;9728;48.194;16.346;2022-10-22T23:44:52;1.10;;;0.90;;
19191;SDS011;9728;48.194;16.346;2022-10-22T23:49:55;1.15;;;0.85;;
19191;SDS011;9728;48.194;16.346;2022-10-22T23:54:58;0.82;;;0.70;;
